Time;durP1;ratioP1;P1;durP2;ratioP2;P2;SDS_P1;SDS_P2;PMS_P1;PMS_P2;Temp;Humidity;BMP_temperature;BMP_pressure;BME280_temperature;BME280_humidity;BME280_pressure;Samples;Min_cycle;Max_cycle;Signal;HPM_P1;HPM_P2
2024/01/23 00:01:43;;;;;;;14.33;3.30;;;9.10;99.90;;;;;;5078640;28;20251;-80
2024/01/23 00:04:08;;;;;;;16.90;3.73;;;9.10;99.90;;;;;;5078093;28;20151;-79
2024/01/23 00:06:34;;;;;;;16.27;3.33;;;9.10;99.90;;;;;;5077444;28;20186;-79
2024/01/23 00:08:59;;;;;;;21.03;3.97;;;9.10;99.90;;;;;;5079087;28;20178;-79
2024/01/23 00:11:25;;;;;;;22.80;3.97;;;9.10;99.90;;;;;;5076962;28;20336;-80
2024/01/23 00:13:51;;;;;;;18.37;3.90;;;9.10;99.90;;;;;;5077319;28;20273;-79
2024/01/23 00:16:16;;;;;;;23.20;3.90;;;9.00;99.90;;;;;;5078481;28;20639;-79
2024/01/23 00:18:42;;;;;;;15.87;3.03;;;9.10;99.90;;;;;;5079408;28;20195;-80
2024/01/23 00:21:07;;;;;;;24.80;4.23;;;9.00;99.90;;;;;;5080679;28;20217;-79
2024/01/23 00:23:33;;;;;;;15.60;4.17;;;8.90;99.90;;;;;;5087263;28;20201;-78
2024/01/23 00:25:58;;;;;;;21.97;4.17;;;8.90;99.90;;;;;;5086774;28;20186;-79
2024/01/23 00:28:24;;;;;;;21.53;3.70;;;8.90;99.90;;;;;;5083336;28;20187;-80
2024/01/23 00:30:50;;;;;;;19.20;3.73;;;8.90;99.90;;;;;;5076179;28;20212;-79
2024/01/23 00:33:15;;;;;;;30.20;5.50;;;9.00;99.90;;;;;;5076763;28;20583;-78
2024/01/23 00:35:41;;;;;;;19.10;3.83;;;9.00;99.90;;;;;;5076168;28;20199;-79
2024/01/23 00:38:07;;;;;;;19.40;3.77;;;9.00;99.90;;;;;;5077224;28;20179;-79
2024/01/23 00:40:33;;;;;;;16.60;3.60;;;9.00;99.90;;;;;;5077978;28;20213;-80
2024/01/23 00:42:59;;;;;;;18.13;3.57;;;8.90;99.90;;;;;;5076417;28;20175;-79
2024/01/23 00:45:25;;;;;;;16.60;3.63;;;8.90;99.90;;;;;;5077415;28;20193;-80
2024/01/23 00:47:50;;;;;;;17.10;3.37;;;9.20;99.90;;;;;;5077437;28;20646;-78
2024/01/23 00:50:17;;;;;;;16.90;3.50;;;8.90;99.90;;;;;;5075472;28;20198;-79
2024/01/23 00:52:42;;;;;;;20.37;4.17;;;8.90;99.90;;;;;;5075460;28;20261;-79
2024/01/23 00:55:08;;;;;;;15.07;3.17;;;8.90;99.90;;;;;;5075172;28;20285;-79
2024/01/23 00:57:34;;;;;;;22.63;4.70;;;8.90;99.90;;;;;;5077685;28;20262;-80
2024/01/23 01:00:01;;;;;;;13.60;3.80;;;8.80;99.90;;;;;;5074968;28;20331;-79
2024/01/23 01:02:26;;;;;;;16.53;3.80;;;8.80;99.90;;;;;;5075044;28;20201;-80
2024/01/23 01:04:52;;;;;;;16.97;3.27;;;8.80;99.90;;;;;;5076160;28;20179;-78
2024/01/23 01:07:17;;;;;;;19.57;4.27;;;8.80;99.90;;;;;;5077192;28;20179;-79
2024/01/23 01:09:43;;;;;;;15.40;3.50;;;8.80;99.90;;;;;;5076832;28;20195;-79
2024/01/23 01:12:08;;;;;;;16.63;3.27;;;8.80;99.90;;;;;;5075558;28;20189;-79
2024/01/23 01:14:34;;;;;;;16.23;3.03;;;8.80;99.90;;;;;;5073365;28;20207;-78
2024/01/23 01:17:00;;;;;;;16.77;3.37;;;8.70;99.90;;;;;;5072333;28;20338;-78
2024/01/23 01:19:25;;;;;;;14.97;4.07;;;8.70;99.90;;;;;;5074498;28;20198;-79
2024/01/23 01:21:51;;;;;;;16.70;3.47;;;8.70;99.90;;;;;;5077585;28;20221;-80
2024/01/23 01:24:17;;;;;;;18.80;3.37;;;8.60;99.90;;;;;;5077043;28;20181;-79
2024/01/23 01:26:43;;;;;;;15.73;3.40;;;8.70;99.90;;;;;;5077004;28;20662;-79
2024/01/23 01:29:08;;;;;;;16.33;3.63;;;8.70;99.90;;;;;;5077239;28;20661;-79
2024/01/23 01:31:34;;;;;;;16.57;3.40;;;8.70;99.90;;;;;;5076684;28;20202;-79
2024/01/23 01:34:00;;;;;;;16.47;3.10;;;8.70;99.90;;;;;;5075825;28;20274;-79
2024/01/23 01:36:25;;;;;;;14.60;3.10;;;8.70;99.90;;;;;;5077659;28;20195;-79
2024/01/23 01:38:52;;;;;;;20.07;3.73;;;8.70;99.90;;;;;;5080520;28;20218;-80
2024/01/23 01:41:17;;;;;;;15.60;2.83;;;8.80;99.90;;;;;;5080091;28;20547;-80
2024/01/23 01:43:43;;;;;;;17.23;3.67;;;8.70;99.90;;;;;;5075860;28;20186;-79
2024/01/23 01:46:20;;;;;;;19.50;3.53;;;8.70;99.90;;;;;;5077277;28;20189;-80
2024/01/23 01:48:47;;;;;;;15.73;3.43;;;8.60;99.90;;;;;;5075198;28;20167;-79
2024/01/23 01:51:14;;;;;;;16.43;3.90;;;8.70;99.90;;;;;;5076897;28;20195;-79
2024/01/23 01:53:40;;;;;;;18.03;3.70;;;8.70;99.90;;;;;;5077034;28;20175;-80
2024/01/23 01:56:06;;;;;;;13.67;3.57;;;8.70;99.90;;;;;;5076644;28;20195;-79
2024/01/23 01:58:32;;;;;;;16.40;3.37;;;8.70;99.90;;;;;;5076251;28;20606;-80
2024/01/23 02:01:02;;;;;;;22.43;3.70;;;8.60;99.90;;;;;;5076834;28;20191;-79
2024/01/23 02:03:29;;;;;;;21.87;3.90;;;8.60;99.90;;;;;;5075833;28;20175;-79
2024/01/23 02:05:57;;;;;;;11.93;3.43;;;8.60;99.90;;;;;;5075310;28;20210;-80
2024/01/23 02:08:22;;;;;;;20.23;3.90;;;8.60;99.90;;;;;;5075419;28;20182;-80
2024/01/23 02:10:48;;;;;;;21.40;3.67;;;8.60;99.90;;;;;;5074578;28;20252;-79
2024/01/23 02:13:13;;;;;;;20.07;4.43;;;8.70;99.90;;;;;;5075285;28;20281;-80
2024/01/23 02:15:39;;;;;;;19.50;3.77;;;8.60;99.90;;;;;;5074489;28;20202;-80
2024/01/23 02:18:05;;;;;;;17.50;3.20;;;8.70;99.90;;;;;;5076974;28;20186;-80
2024/01/23 02:20:30;;;;;;;18.07;3.73;;;8.70;99.90;;;;;;5075140;28;20568;-79
2024/01/23 02:22:56;;;;;;;16.93;3.40;;;8.60;99.90;;;;;;5075993;28;20201;-80
2024/01/23 02:25:21;;;;;;;13.83;3.57;;;8.60;99.90;;;;;;5076546;28;20603;-80
2024/01/23 02:27:47;;;;;;;17.60;3.50;;;8.60;99.90;;;;;;5075405;28;20179;-79
2024/01/23 02:30:13;;;;;;;16.30;2.90;;;8.60;99.90;;;;;;5080681;28;20243;-80
2024/01/23 02:32:47;;;;;;;15.10;3.30;;;8.70;99.90;;;;;;5079914;28;20553;-80
2024/01/23 02:35:13;;;;;;;14.60;3.23;;;8.60;99.90;;;;;;5081292;28;20684;-79
2024/01/23 02:37:39;;;;;;;14.87;2.83;;;8.60;99.90;;;;;;5083054;28;20163;-80
2024/01/23 02:40:06;;;;;;;10.47;2.70;;;8.60;99.90;;;;;;5080126;28;20693;-80
2024/01/23 02:42:32;;;;;;;12.50;3.20;;;8.60;99.90;;;;;;5078699;28;20285;-79
2024/01/23 02:44:57;;;;;;;20.80;3.50;;;8.60;99.90;;;;;;5078081;28;20185;-80
2024/01/23 02:47:23;;;;;;;21.60;3.90;;;8.60;99.90;;;;;;5080032;28;20167;-79
2024/01/23 02:49:49;;;;;;;14.97;3.33;;;8.60;99.90;;;;;;5079887;28;20669;-79
2024/01/23 02:52:14;;;;;;;14.73;3.97;;;9.00;99.90;;;;;;5079603;28;20174;-80
2024/01/23 02:54:40;;;;;;;18.77;3.47;;;8.50;99.90;;;;;;5078757;28;20243;-79
2024/01/23 02:57:05;;;;;;;20.80;3.10;;;8.60;99.90;;;;;;5076094;28;20211;-80
2024/01/23 02:59:31;;;;;;;14.20;2.87;;;8.50;99.90;;;;;;5074113;28;20355;-78
2024/01/23 03:01:57;;;;;;;16.83;3.50;;;8.40;99.90;;;;;;5077914;28;20258;-80
2024/01/23 03:04:22;;;;;;;20.27;3.53;;;8.40;99.90;;;;;;5078449;28;20546;-80
2024/01/23 03:06:48;;;;;;;21.57;3.57;;;8.30;99.90;;;;;;5078317;28;20560;-80
2024/01/23 03:09:13;;;;;;;16.10;3.07;;;8.30;99.90;;;;;;5078700;28;20172;-80
2024/01/23 03:11:42;;;;;;;16.97;3.70;;;8.30;99.90;;;;;;5077865;28;20190;-79
2024/01/23 03:14:08;;;;;;;13.80;3.07;;;8.30;99.90;;;;;;5078413;28;20630;-79
2024/01/23 03:16:33;;;;;;;13.10;3.00;;;8.30;99.90;;;;;;5079346;28;20202;-78
2024/01/23 03:18:59;;;;;;;13.77;3.07;;;8.10;99.90;;;;;;5042276;28;20184;-79
2024/01/23 03:21:24;;;;;;;15.10;2.90;;;8.10;99.90;;;;;;5038209;28;20204;-79
2024/01/23 03:23:51;;;;;;;18.90;3.27;;;8.10;99.90;;;;;;5038338;28;20200;-79
2024/01/23 03:26:17;;;;;;;16.77;2.90;;;8.10;99.90;;;;;;5040524;28;20230;-80
2024/01/23 03:28:42;;;;;;;16.83;3.00;;;8.00;99.90;;;;;;5038610;28;20184;-80
2024/01/23 03:31:08;;;;;;;13.23;3.33;;;8.00;99.90;;;;;;5038349;28;20200;-80
2024/01/23 03:33:33;;;;;;;16.43;3.07;;;8.00;99.90;;;;;;5038206;28;20222;-79
2024/01/23 03:35:59;;;;;;;12.30;2.70;;;7.90;99.90;;;;;;5039127;28;20196;-80
2024/01/23 03:38:24;;;;;;;12.37;2.83;;;7.90;99.90;;;;;;5039085;28;20290;-80
2024/01/23 03:40:50;;;;;;;12.47;3.40;;;7.90;99.90;;;;;;5042274;28;20207;-79
2024/01/23 03:43:16;;;;;;;13.00;2.63;;;7.90;99.90;;;;;;5048637;28;20172;-79
2024/01/23 03:45:41;;;;;;;21.10;3.10;;;7.80;99.90;;;;;;5046763;28;20214;-79
2024/01/23 03:48:07;;;;;;;19.30;3.40;;;7.80;99.90;;;;;;5045587;28;20203;-79
2024/01/23 03:50:33;;;;;;;8.70;2.97;;;7.80;99.90;;;;;;5045347;28;20680;-79
2024/01/23 03:52:58;;;;;;;14.13;3.70;;;7.70;99.90;;;;;;5047882;28;20177;-79
2024/01/23 03:55:25;;;;;;;16.87;3.33;;;7.70;99.90;;;;;;5046442;28;20533;-79
2024/01/23 03:57:51;;;;;;;11.23;3.10;;;7.60;99.90;;;;;;5047053;28;20634;-78
2024/01/23 04:00:17;;;;;;;14.83;3.27;;;7.60;99.90;;;;;;5043542;28;20197;-78
2024/01/23 04:02:43;;;;;;;14.60;2.77;;;7.60;99.90;;;;;;5045841;28;20180;-79
2024/01/23 04:05:08;;;;;;;16.50;3.70;;;7.60;99.90;;;;;;5042671;28;20195;-80
2024/01/23 04:07:34;;;;;;;11.77;3.23;;;7.60;99.90;;;;;;5046526;28;20616;-78
2024/01/23 04:10:00;;;;;;;11.80;3.20;;;7.60;99.90;;;;;;5045963;28;20200;-79
2024/01/23 04:12:26;;;;;;;24.63;3.63;;;7.60;99.90;;;;;;5045751;28;20207;-79
2024/01/23 04:14:51;;;;;;;14.33;3.03;;;7.50;99.90;;;;;;5045404;28;20176;-78
2024/01/23 04:17:17;;;;;;;12.60;3.73;;;7.50;99.90;;;;;;5047324;28;20246;-79
2024/01/23 04:19:43;;;;;;;23.70;3.63;;;7.50;99.90;;;;;;5045776;28;20200;-79
2024/01/23 04:22:09;;;;;;;17.07;3.37;;;7.40;99.90;;;;;;5034362;28;20182;-79
2024/01/23 04:24:40;;;;;;;18.50;3.63;;;7.40;99.90;;;;;;5034947;28;20711;-80
2024/01/23 04:27:06;;;;;;;14.73;3.27;;;7.40;99.90;;;;;;5033767;28;20236;-80
2024/01/23 04:29:32;;;;;;;11.53;2.67;;;7.40;99.90;;;;;;5033252;28;20276;-80
2024/01/23 04:31:57;;;;;;;19.53;3.37;;;7.40;99.90;;;;;;5036989;28;20278;-80
2024/01/23 04:34:23;;;;;;;20.10;3.13;;;7.40;99.90;;;;;;5036961;28;20350;-80
2024/01/23 04:36:48;;;;;;;16.50;3.10;;;7.40;99.90;;;;;;5037215;28;20208;-80
2024/01/23 04:39:16;;;;;;;16.97;3.33;;;7.40;99.90;;;;;;5035348;28;20326;-79
2024/01/23 04:41:41;;;;;;;14.37;3.00;;;7.40;99.90;;;;;;5036460;28;20207;-79
2024/01/23 04:44:07;;;;;;;17.80;3.50;;;7.40;99.90;;;;;;5038983;28;20169;-80
2024/01/23 04:46:32;;;;;;;19.03;3.40;;;7.40;99.90;;;;;;5039862;28;20547;-80
2024/01/23 04:48:58;;;;;;;13.63;2.90;;;7.40;99.90;;;;;;5042377;28;20184;-79
2024/01/23 04:51:23;;;;;;;26.83;3.70;;;7.30;99.90;;;;;;5040025;28;20325;-79
2024/01/23 04:53:52;;;;;;;16.70;3.30;;;7.20;99.90;;;;;;5033371;28;20232;-78
2024/01/23 04:56:18;;;;;;;20.37;3.23;;;7.20;99.90;;;;;;5033510;28;20211;-79
2024/01/23 04:58:43;;;;;;;16.97;3.50;;;7.20;99.90;;;;;;5033779;28;20177;-79
2024/01/23 05:01:09;;;;;;;21.43;4.13;;;7.20;99.90;;;;;;5035304;28;20583;-79
2024/01/23 05:03:35;;;;;;;13.33;3.53;;;7.20;99.90;;;;;;5034354;28;20647;-78
2024/01/23 05:06:00;;;;;;;25.67;3.97;;;7.10;99.90;;;;;;5035507;28;20172;-80
2024/01/23 05:08:26;;;;;;;17.63;3.03;;;7.10;99.90;;;;;;5033181;28;20280;-79
2024/01/23 05:10:51;;;;;;;19.73;3.40;;;7.10;99.90;;;;;;5034719;28;20204;-79
2024/01/23 05:13:17;;;;;;;15.23;2.97;;;7.00;99.90;;;;;;5034391;28;20203;-79
2024/01/23 05:15:42;;;;;;;17.77;3.07;;;7.00;99.90;;;;;;5033221;28;20204;-79
2024/01/23 05:18:08;;;;;;;18.90;3.57;;;6.90;99.90;;;;;;5033601;28;20230;-79
2024/01/23 05:20:34;;;;;;;17.07;3.53;;;6.90;99.90;;;;;;5034628;28;20219;-79
2024/01/23 05:23:01;;;;;;;28.60;4.10;;;6.90;99.90;;;;;;5033372;28;20599;-79
2024/01/23 05:25:26;;;;;;;17.40;4.43;;;6.90;99.90;;;;;;5033762;28;20172;-79
2024/01/23 05:27:52;;;;;;;18.87;3.80;;;6.80;99.90;;;;;;5035586;28;20173;-79
2024/01/23 05:30:18;;;;;;;14.63;3.10;;;6.80;99.90;;;;;;5034268;28;20200;-79
2024/01/23 05:32:44;;;;;;;16.43;3.40;;;6.80;99.90;;;;;;5033165;28;20176;-80
2024/01/23 05:35:10;;;;;;;16.27;3.27;;;6.80;99.90;;;;;;5033370;28;20305;-81
2024/01/23 05:37:35;;;;;;;24.20;3.77;;;6.80;99.90;;;;;;5033339;28;20173;-81
2024/01/23 05:40:02;;;;;;;17.90;3.47;;;6.80;99.90;;;;;;5032935;28;20191;-80
2024/01/23 05:42:28;;;;;;;18.33;3.33;;;6.80;99.90;;;;;;5034846;28;20164;-80
2024/01/23 05:44:54;;;;;;;23.57;3.30;;;6.80;99.90;;;;;;5033038;28;20176;-81
2024/01/23 05:47:19;;;;;;;17.17;3.33;;;6.70;99.90;;;;;;5060975;28;20662;-80
2024/01/23 05:49:45;;;;;;;18.47;3.53;;;6.70;99.90;;;;;;5070836;28;20189;-80
2024/01/23 05:52:10;;;;;;;19.47;3.73;;;6.80;99.90;;;;;;5071505;28;20166;-80
2024/01/23 05:54:38;;;;;;;23.33;3.90;;;6.70;99.90;;;;;;5072023;28;20206;-80
2024/01/23 05:57:03;;;;;;;20.43;3.50;;;6.70;99.90;;;;;;5071515;28;20686;-80
2024/01/23 05:59:29;;;;;;;23.07;4.40;;;6.60;99.90;;;;;;5073456;28;20227;-80
2024/01/23 06:01:55;;;;;;;21.73;4.03;;;6.60;99.90;;;;;;5067817;28;20185;-81
2024/01/23 06:04:20;;;;;;;17.63;3.77;;;6.50;99.90;;;;;;5068409;28;20199;-80
2024/01/23 06:06:46;;;;;;;18.57;3.70;;;6.50;99.90;;;;;;5070363;28;20233;-81
2024/01/23 06:09:12;;;;;;;17.27;3.67;;;6.60;99.90;;;;;;5069974;28;20186;-81
2024/01/23 06:11:39;;;;;;;20.43;4.07;;;6.60;99.90;;;;;;5066594;28;20190;-81
2024/01/23 06:14:05;;;;;;;19.50;3.90;;;6.60;99.90;;;;;;5077103;28;20175;-81
2024/01/23 06:16:30;;;;;;;22.87;4.00;;;6.60;99.90;;;;;;5079128;28;20198;-81
2024/01/23 06:18:56;;;;;;;19.57;4.00;;;6.60;99.90;;;;;;5076894;28;20171;-81
2024/01/23 06:21:22;;;;;;;20.23;3.93;;;6.60;99.90;;;;;;5068343;28;20213;-80
2024/01/23 06:23:47;;;;;;;15.43;3.60;;;6.50;99.90;;;;;;5060172;28;20204;-81
2024/01/23 06:26:13;;;;;;;23.33;3.97;;;6.50;99.90;;;;;;5065021;28;20178;-81
2024/01/23 06:28:38;;;;;;;19.80;3.37;;;6.50;99.90;;;;;;5072178;28;20240;-81
2024/01/23 06:31:12;;;;;;;21.00;3.33;;;6.50;99.90;;;;;;5063050;28;20199;-81
2024/01/23 06:33:38;;;;;;;20.57;3.87;;;6.90;99.90;;;;;;5071394;28;20184;-80
2024/01/23 06:36:04;;;;;;;23.93;4.50;;;6.40;99.90;;;;;;5077380;28;20205;-80
2024/01/23 06:38:30;;;;;;;20.80;3.97;;;6.40;99.90;;;;;;5074850;28;20523;-80
2024/01/23 06:40:55;;;;;;;23.70;4.00;;;6.40;99.90;;;;;;5055983;28;20238;-80
2024/01/23 06:43:23;;;;;;;18.50;3.70;;;6.40;99.90;;;;;;5055715;28;20270;-80
2024/01/23 06:45:49;;;;;;;23.43;4.13;;;6.00;99.90;;;;;;5055675;28;20566;-80
2024/01/23 06:48:37;;;;;;;17.33;3.87;;;6.90;99.90;;;;;;5057192;28;20183;-80
2024/01/23 06:51:08;;;;;;;21.37;3.80;;;6.30;99.90;;;;;;5059732;28;20598;-81
2024/01/23 06:53:34;;;;;;;22.30;3.50;;;6.30;99.90;;;;;;5059401;28;20190;-80
2024/01/23 06:56:00;;;;;;;21.30;3.77;;;6.40;99.90;;;;;;5059147;28;20195;-81
2024/01/23 06:58:28;;;;;;;18.63;3.80;;;6.50;99.90;;;;;;5062610;28;20172;-80
2024/01/23 07:00:56;;;;;;;29.97;3.97;;;6.10;99.90;;;;;;5065043;28;20191;-80
2024/01/23 07:03:39;;;;;;;21.27;3.53;;;6.90;99.90;;;;;;5056358;28;20174;-81
2024/01/23 07:06:05;;;;;;;19.53;3.43;;;5.80;99.90;;;;;;5056811;28;20572;-81
2024/01/23 07:08:42;;;;;;;18.63;3.70;;;6.30;99.90;;;;;;5057312;28;20218;-80
2024/01/23 07:11:08;;;;;;;18.40;4.60;;;6.10;99.90;;;;;;5043600;28;20722;-80
2024/01/23 07:13:33;;;;;;;21.70;3.50;;;6.00;99.90;;;;;;5037400;28;20250;-80
2024/01/23 07:15:59;;;;;;;15.33;3.37;;;6.40;99.90;;;;;;5035550;28;20283;-81
2024/01/23 07:18:24;;;;;;;15.23;3.27;;;6.30;99.90;;;;;;5057022;28;20556;-80
2024/01/23 07:20:52;;;;;;;17.93;3.30;;;6.50;99.90;;;;;;5053700;28;20183;-79
2024/01/23 07:23:18;;;;;;;19.47;3.70;;;6.00;99.90;;;;;;5054184;28;20654;-81
2024/01/23 07:25:47;;;;;;;27.17;3.90;;;6.00;99.90;;;;;;5054131;28;20186;-82
2024/01/23 07:28:18;;;;;;;16.03;3.60;;;5.90;99.90;;;;;;5053819;28;20186;-81
2024/01/23 07:30:43;;;;;;;26.67;3.77;;;5.90;99.90;;;;;;5053747;28;20234;-81
2024/01/23 07:33:18;;;;;;;19.57;3.10;;;6.00;99.90;;;;;;5055850;28;20195;-81
2024/01/23 07:35:57;;;;;;;15.67;3.10;;;5.90;99.90;;;;;;5055786;28;20202;-80
2024/01/23 07:38:25;;;;;;;23.13;4.13;;;5.80;99.90;;;;;;5056946;28;20203;-80
2024/01/23 07:40:54;;;;;;;19.33;3.63;;;6.20;99.90;;;;;;5057505;28;20187;-80
2024/01/23 07:44:10;;;;;;;22.20;3.57;;;5.90;99.90;;;;;;5057638;28;20163;-80
2024/01/23 07:46:47;;;;;;;17.83;3.43;;;5.80;99.90;;;;;;5038491;28;20184;-80
2024/01/23 07:49:34;;;;;;;15.93;3.73;;;5.70;99.90;;;;;;5054693;28;20194;-81
2024/01/23 07:52:09;;;;;;;18.23;3.80;;;5.80;99.90;;;;;;5058169;28;20213;-80
2024/01/23 07:54:37;;;;;;;19.40;3.73;;;5.70;99.90;;;;;;5057411;28;20155;-81
2024/01/23 07:57:06;;;;;;;16.73;3.00;;;7.00;99.90;;;;;;5056691;28;20195;-80
2024/01/23 07:59:32;;;;;;;18.50;4.03;;;5.50;99.90;;;;;;5055470;28;20175;-80
2024/01/23 08:01:57;;;;;;;16.77;3.60;;;6.00;99.90;;;;;;5056983;28;20171;-80
2024/01/23 08:04:35;;;;;;;;;;;;;;;;;;;;;
2024/01/23 08:07:01;;;;;;;17.23;3.63;;;5.80;99.90;;;;;;5057915;28;20154;-80
2024/01/23 08:09:48;;;;;;;14.13;3.60;;;5.70;99.90;;;;;;5056366;28;20203;-80
2024/01/23 08:12:22;;;;;;;19.93;4.43;;;5.50;99.90;;;;;;5058091;28;20525;-80
2024/01/23 08:14:48;;;;;;;21.03;4.13;;;6.00;99.90;;;;;;5057828;28;20198;-80
2024/01/23 08:17:18;;;;;;;18.57;3.80;;;5.40;99.90;;;;;;5057986;28;20204;-81
2024/01/23 08:19:46;;;;;;;12.83;3.03;;;5.80;99.90;;;;;;5055545;28;20335;-79
2024/01/23 08:22:15;;;;;;;19.17;3.37;;;6.20;99.90;;;;;;5054907;28;20179;-81
2024/01/23 08:24:41;;;;;;;26.90;4.87;;;5.20;99.90;;;;;;5060448;28;20175;-80
2024/01/23 08:27:06;;;;;;;13.03;3.30;;;6.20;99.90;;;;;;5055600;28;20547;-80
2024/01/23 08:29:32;;;;;;;18.53;3.67;;;5.80;99.90;;;;;;5055291;28;20199;-80
2024/01/23 08:32:03;;;;;;;19.80;3.57;;;6.10;99.90;;;;;;5055368;28;20217;-80
2024/01/23 08:34:29;;;;;;;16.33;3.90;;;5.80;99.90;;;;;;5054468;28;20195;-79
2024/01/23 08:36:55;;;;;;;18.50;3.60;;;5.80;99.90;;;;;;5054368;28;20530;-82
2024/01/23 08:39:21;;;;;;;19.10;3.33;;;6.50;99.90;;;;;;5055924;28;20174;-80
2024/01/23 08:41:48;;;;;;;21.27;3.93;;;5.90;99.90;;;;;;5055882;28;20532;-80
2024/01/23 08:44:20;;;;;;;14.30;3.53;;;6.00;99.90;;;;;;5056058;28;20175;-80
2024/01/23 08:46:45;;;;;;;18.57;3.50;;;6.10;99.90;;;;;;5056201;28;20194;-80
2024/01/23 08:49:15;;;;;;;20.53;3.90;;;5.90;99.90;;;;;;5054934;28;20179;-80
2024/01/23 08:51:41;;;;;;;31.90;4.63;;;5.90;99.90;;;;;;5054445;28;20247;-81
2024/01/23 08:54:10;;;;;;;24.60;3.93;;;6.00;99.90;;;;;;5054389;28;20369;-80
2024/01/23 08:56:58;;;;;;;19.47;3.97;;;6.10;99.90;;;;;;5055160;28;20203;-80
2024/01/23 08:59:32;;;;;;;18.40;4.40;;;6.60;99.90;;;;;;5056478;28;20196;-78
2024/01/23 09:02:02;;;;;;;17.80;3.47;;;7.10;99.90;;;;;;5057225;28;20160;-80
2024/01/23 09:04:30;;;;;;;24.37;4.07;;;6.20;99.90;;;;;;5057121;28;20172;-80
2024/01/23 09:06:56;;;;;;;21.97;3.60;;;6.50;99.90;;;;;;5057231;28;20171;-81
2024/01/23 09:09:21;;;;;;;22.73;4.30;;;5.80;99.90;;;;;;5057373;28;20261;-81
2024/01/23 09:11:50;;;;;;;28.03;4.17;;;6.30;99.90;;;;;;5061860;28;20202;-81
2024/01/23 09:14:21;;;;;;;15.50;3.20;;;6.30;99.90;;;;;;5057816;28;20233;-80
2024/01/23 09:16:47;;;;;;;19.77;3.97;;;6.50;99.90;;;;;;5053883;28;20199;-80
2024/01/23 09:19:14;;;;;;;20.50;3.70;;;6.60;99.90;;;;;;5053686;28;20283;-80
2024/01/23 09:21:43;;;;;;;14.03;3.30;;;6.50;99.90;;;;;;5053452;28;20195;-82
2024/01/23 09:24:11;;;;;;;25.50;4.33;;;6.60;99.90;;;;;;5054726;28;20664;-80
2024/01/23 09:26:38;;;;;;;19.13;3.87;;;6.60;99.90;;;;;;5053864;28;20186;-80
2024/01/23 09:29:04;;;;;;;15.57;3.73;;;6.60;99.90;;;;;;5053299;28;20183;-80
2024/01/23 09:31:32;;;;;;;20.03;3.57;;;6.70;99.90;;;;;;5054075;28;20221;-80
2024/01/23 09:34:04;;;;;;;21.43;4.03;;;6.70;99.90;;;;;;5055274;28;20194;-81
2024/01/23 09:36:29;;;;;;;18.63;3.80;;;6.70;99.90;;;;;;5053908;28;20683;-80
2024/01/23 09:38:58;;;;;;;19.20;3.37;;;6.90;99.90;;;;;;5053464;28;20175;-80
2024/01/23 09:41:27;;;;;;;20.53;4.17;;;6.40;99.90;;;;;;5054861;28;20570;-80
2024/01/23 09:43:57;;;;;;;25.67;4.50;;;7.70;99.90;;;;;;5053888;28;20171;-80
2024/01/23 09:46:25;;;;;;;19.73;3.30;;;6.80;99.90;;;;;;5055013;28;20623;-78
2024/01/23 09:48:57;;;;;;;19.10;4.37;;;6.40;99.90;;;;;;5052976;28;20250;-80
2024/01/23 09:51:26;;;;;;;15.83;3.90;;;7.50;99.90;;;;;;5054634;28;20237;-80
2024/01/23 09:53:57;;;;;;;13.63;3.30;;;6.80;99.90;;;;;;5053267;28;20593;-80
2024/01/23 09:56:27;;;;;;;25.60;4.27;;;7.00;99.90;;;;;;5054612;28;20567;-81
2024/01/23 09:58:56;;;;;;;18.10;3.43;;;7.10;99.90;;;;;;5052983;28;20168;-80
2024/01/23 10:01:22;;;;;;;20.73;3.50;;;7.10;99.90;;;;;;5054336;28;20698;-79
2024/01/23 10:03:57;;;;;;;23.80;4.47;;;6.60;99.90;;;;;;5054135;28;20163;-83
2024/01/23 10:06:26;;;;;;;15.33;3.50;;;7.50;99.90;;;;;;5053352;28;20669;-80
2024/01/23 10:08:54;;;;;;;20.50;3.87;;;7.60;99.90;;;;;;5054375;28;20175;-80
2024/01/23 10:11:20;;;;;;;18.00;3.57;;;7.20;99.90;;;;;;5054305;28;20199;-83
2024/01/23 10:13:49;;;;;;;25.50;4.00;;;7.60;99.90;;;;;;5053186;28;20241;-80
2024/01/23 10:16:16;;;;;;;21.90;4.70;;;7.90;99.90;;;;;;5054408;28;20253;-80
2024/01/23 10:18:55;;;;;;;21.67;4.00;;;8.00;99.90;;;;;;5054336;28;20225;-80
2024/01/23 10:21:22;;;;;;;27.37;4.50;;;7.10;99.90;;;;;;5053273;28;20271;-80
2024/01/23 10:23:56;;;;;;;20.50;3.67;;;8.10;99.90;;;;;;5053086;28;20199;-80
2024/01/23 10:26:25;;;;;;;19.63;4.33;;;7.50;99.90;;;;;;5054759;28;20180;-80
2024/01/23 10:29:05;;;;;;;20.23;4.40;;;7.50;99.90;;;;;;5054698;28;20179;-79
2024/01/23 10:31:31;;;;;;;23.90;4.83;;;7.60;99.90;;;;;;5053299;28;20199;-80
2024/01/23 10:33:59;;;;;;;24.13;4.50;;;7.90;99.90;;;;;;5052778;28;20249;-79
2024/01/23 10:36:26;;;;;;;25.20;4.30;;;7.30;99.90;;;;;;5055023;28;20261;-79
2024/01/23 10:39:06;;;;;;;22.63;4.90;;;7.70;99.90;;;;;;5054698;28;20186;-80
2024/01/23 10:41:35;;;;;;;29.63;5.50;;;7.50;99.90;;;;;;5053807;28;20655;-80
2024/01/23 10:44:03;;;;;;;20.37;4.43;;;7.40;99.90;;;;;;5053756;28;20176;-81
2024/01/23 10:46:38;;;;;;;19.37;4.43;;;7.80;99.90;;;;;;5052793;28;20176;-81
2024/01/23 10:49:25;;;;;;;14.53;3.43;;;8.00;99.90;;;;;;5051724;28;20223;-80
2024/01/23 10:51:54;;;;;;;21.33;4.40;;;7.90;99.90;;;;;;5055204;28;20663;-81
2024/01/23 10:54:30;;;;;;;23.23;4.53;;;8.50;99.90;;;;;;5057045;28;20230;-81
2024/01/23 10:57:19;;;;;;;25.20;4.63;;;8.20;99.90;;;;;;5055552;28;20199;-81
2024/01/23 10:59:47;;;;;;;22.00;5.40;;;7.90;99.90;;;;;;5052447;28;20194;-80
2024/01/23 11:02:39;;;;;;;21.77;4.50;;;8.30;99.90;;;;;;5056260;28;20670;-81
2024/01/23 11:05:06;;;;;;;21.03;5.03;;;8.10;99.90;;;;;;5057600;28;20190;-82
2024/01/23 11:07:56;;;;;;;20.23;4.73;;;8.10;99.90;;;;;;5058581;28;20650;-82
2024/01/23 11:10:45;;;;;;;22.70;4.90;;;8.20;99.90;;;;;;5059406;28;20192;-82
2024/01/23 11:13:30;;;;;;;18.73;4.10;;;8.20;99.90;;;;;;5054950;28;20187;-82
2024/01/23 11:15:57;;;;;;;24.00;4.83;;;8.20;99.90;;;;;;5059221;28;20195;-82
2024/01/23 11:18:27;;;;;;;24.23;4.57;;;8.30;99.90;;;;;;5060568;28;20175;-82
2024/01/23 11:21:05;;;;;;;22.27;4.50;;;8.30;99.90;;;;;;5068076;28;20257;-82
2024/01/23 11:23:53;;;;;;;25.80;5.57;;;8.30;99.90;;;;;;5068459;28;20171;-82
2024/01/23 11:26:19;;;;;;;15.23;3.93;;;8.30;99.90;;;;;;5055879;28;20234;-82
2024/01/23 11:28:59;;;;;;;20.00;4.33;;;8.30;99.90;;;;;;5056185;28;20184;-82
2024/01/23 11:31:26;;;;;;;20.63;4.40;;;8.30;99.90;;;;;;5056488;28;20195;-82
2024/01/23 11:33:53;;;;;;;18.87;3.60;;;8.30;99.90;;;;;;5057610;28;20241;-82
2024/01/23 11:36:22;;;;;;;27.93;4.50;;;8.40;99.90;;;;;;5057143;28;20238;-82
2024/01/23 11:38:49;;;;;;;20.30;4.67;;;8.40;99.90;;;;;;5057719;28;20662;-82
2024/01/23 11:41:22;;;;;;;22.47;4.23;;;8.40;99.90;;;;;;5057460;28;20283;-82
2024/01/23 11:44:03;;;;;;;21.37;5.20;;;8.50;99.90;;;;;;5057297;28;20306;-82
2024/01/23 11:46:30;;;;;;;17.30;4.20;;;8.50;99.90;;;;;;5059386;28;20166;-82
2024/01/23 11:48:56;;;;;;;23.77;4.53;;;8.50;99.90;;;;;;5058588;28;20180;-81
2024/01/23 11:51:22;;;;;;;22.30;4.83;;;8.50;99.90;;;;;;5055475;28;20587;-81
2024/01/23 11:53:48;;;;;;;28.73;4.83;;;8.50;99.90;;;;;;5057433;28;20182;-82
2024/01/23 11:56:15;;;;;;;24.00;4.83;;;8.50;99.90;;;;;;5055410;28;20287;-82
2024/01/23 11:58:42;;;;;;;30.97;4.63;;;8.50;99.90;;;;;;5056239;28;20175;-81
2024/01/23 12:01:14;;;;;;;24.53;4.67;;;8.60;99.90;;;;;;5054629;28;20184;-82
2024/01/23 12:03:50;;;;;;;18.87;4.00;;;8.60;99.90;;;;;;5055262;28;20183;-82
2024/01/23 12:06:16;;;;;;;23.43;4.50;;;8.70;99.90;;;;;;5055747;28;20266;-82
2024/01/23 12:08:46;;;;;;;22.10;4.90;;;8.60;99.90;;;;;;5055059;28;20579;-82
2024/01/23 12:11:17;;;;;;;19.67;4.13;;;8.70;99.90;;;;;;5054756;28;20203;-82
2024/01/23 12:13:49;;;;;;;20.97;4.03;;;8.70;99.90;;;;;;5055499;28;20171;-82
2024/01/23 12:16:17;;;;;;;20.80;4.37;;;8.80;99.90;;;;;;5055000;28;20203;-82
2024/01/23 12:18:44;;;;;;;20.00;4.40;;;8.60;99.90;;;;;;5057012;28;20168;-82
2024/01/23 12:21:11;;;;;;;23.10;4.57;;;8.80;99.90;;;;;;5054048;28;20597;-82
2024/01/23 12:23:37;;;;;;;22.70;3.80;;;8.80;99.90;;;;;;5054467;28;20182;-82
2024/01/23 12:26:04;;;;;;;22.17;4.30;;;8.80;99.90;;;;;;5056006;28;20176;-82
2024/01/23 12:28:32;;;;;;;19.90;4.00;;;8.80;99.90;;;;;;5053446;28;20179;-83
2024/01/23 12:30:58;;;;;;;17.97;4.03;;;8.80;99.90;;;;;;5052185;28;20655;-81
2024/01/23 12:33:25;;;;;;;18.33;3.67;;;8.80;99.90;;;;;;5052573;28;20187;-81
2024/01/23 12:35:51;;;;;;;20.77;4.63;;;8.80;99.90;;;;;;5053776;28;20250;-81
2024/01/23 12:38:18;;;;;;;25.27;4.50;;;8.80;99.90;;;;;;5054589;28;20194;-80
2024/01/23 12:40:44;;;;;;;25.20;4.80;;;8.90;99.90;;;;;;5054416;28;20194;-81
2024/01/23 12:43:10;;;;;;;24.40;4.73;;;8.80;99.90;;;;;;5053782;28;20171;-79
2024/01/23 12:45:36;;;;;;;21.03;4.20;;;8.80;99.90;;;;;;5052759;28;20278;-79
2024/01/23 12:48:02;;;;;;;26.70;4.57;;;8.80;99.90;;;;;;5054624;28;20175;-78
2024/01/23 12:50:29;;;;;;;23.90;4.37;;;8.80;99.90;;;;;;5053562;28;20263;-79
2024/01/23 12:52:58;;;;;;;25.03;4.53;;;8.80;99.90;;;;;;5055744;28;20245;-80